Sporting Hill, Pennsylvania
Current Conditions -  °F | °C
As of 2:53 AM on Saturday 20 Dec 2014 (Local Time) from KLNS Reporting Station
Overcast Overcast  
Wind Chill: 23°   Ceiling: 3100
Heat Index: 31°   Visibility: 10mi
Dew Point: 21°   Wind: 9mph
Humidity: 67%   Direction: 290°WNW
Pressure: 30.22"   Gusts: NA
Location:  40.1777°N, 76.4291°W
Report Text: KLNS 200753Z 29008KT 10SM OVC031 M01/M06 A3022 RMK AO2 SLP237 T10061061
Loading
Personal Weather Stations






























Interactive Weather Map New forecast layout! Learn more

10-Day Weather Forecast

Advertisements
Track Severe Weather on mobile